createdAt,value
2017-09-08T00:00:25.499Z,23.39
2017-09-08T00:01:04.517Z,23.31
2017-09-08T00:02:04.558Z,23.34
2017-09-08T00:03:04.603Z,23.34
2017-09-08T00:04:04.643Z,23.27
2017-09-08T00:05:04.682Z,23.34
2017-09-08T00:06:25.749Z,23.42
2017-09-08T00:07:04.768Z,23.34
2017-09-08T00:08:04.811Z,23.38
2017-09-08T00:09:04.852Z,23.38
2017-09-08T00:10:04.893Z,23.31
2017-09-08T00:11:04.933Z,23.34
2017-09-08T00:12:25.999Z,23.29
2017-09-08T00:13:05.019Z,23.40
2017-09-08T00:14:05.057Z,23.40
2017-09-08T00:15:05.100Z,23.31
2017-09-08T00:16:05.140Z,23.27
2017-09-08T00:17:05.181Z,23.32
2017-09-08T00:18:26.245Z,23.38
2017-09-08T00:19:05.267Z,23.35
2017-09-08T00:20:05.309Z,23.39
2017-09-08T00:21:05.347Z,23.34
2017-09-08T00:22:05.389Z,23.26
2017-09-08T00:23:05.431Z,23.23
2017-09-08T00:24:26.497Z,23.24
2017-09-08T00:25:05.514Z,23.29
2017-09-08T00:26:06.519Z,23.38
2017-09-08T00:27:05.599Z,23.32
2017-09-08T00:28:05.639Z,23.27
2017-09-08T00:29:05.682Z,23.31
2017-09-08T00:30:26.745Z,23.35
2017-09-08T00:31:05.763Z,23.23
2017-09-08T00:32:05.807Z,23.38
2017-09-08T00:33:05.848Z,23.23
2017-09-08T00:34:05.888Z,23.32
2017-09-08T00:35:05.929Z,23.23
2017-09-08T00:36:26.994Z,23.26
2017-09-08T00:37:06.012Z,23.20
2017-09-08T00:38:06.056Z,23.31
2017-09-08T00:39:06.096Z,23.29
2017-09-08T00:40:06.139Z,23.32
2017-09-08T00:41:06.179Z,23.20
2017-09-08T00:42:27.241Z,23.22
2017-09-08T00:43:06.262Z,23.26
2017-09-08T00:44:06.306Z,23.23
2017-09-08T00:45:06.344Z,23.24
2017-09-08T00:46:06.386Z,23.27
2017-09-08T00:47:06.427Z,23.23
2017-09-08T00:48:27.493Z,23.19
2017-09-08T00:49:06.514Z,23.31
2017-09-08T00:50:06.552Z,23.32
2017-09-08T00:51:06.596Z,23.23
2017-09-08T00:52:06.634Z,23.31
2017-09-08T00:53:06.676Z,23.22
2017-09-08T00:54:27.742Z,23.20
2017-09-08T00:55:06.759Z,23.22
2017-09-08T00:56:06.800Z,23.26
2017-09-08T00:57:06.845Z,23.15
2017-09-08T00:58:06.884Z,23.19
2017-09-08T00:59:06.927Z,23.24
2017-09-08T01:00:27.988Z,23.19
2017-09-08T01:01:07.008Z,23.19
2017-09-08T01:02:07.049Z,23.15
2017-09-08T01:03:07.091Z,23.22
2017-09-08T01:04:07.135Z,23.22
2017-09-08T01:05:07.173Z,23.22
2017-09-08T01:06:28.239Z,23.15
2017-09-08T01:07:07.257Z,23.26
2017-09-08T01:08:07.301Z,23.19
2017-09-08T01:09:07.339Z,23.27
2017-09-08T01:10:07.384Z,23.17
2017-09-08T01:11:07.422Z,23.23
2017-09-08T01:12:28.490Z,23.22
2017-09-08T01:13:07.509Z,23.19
2017-09-08T01:14:07.545Z,23.19
2017-09-08T01:15:07.589Z,23.24
2017-09-08T01:16:07.631Z,23.27
2017-09-08T01:17:07.671Z,23.22
2017-09-08T01:18:28.735Z,23.22
2017-09-08T01:19:07.758Z,23.22
2017-09-08T01:20:07.795Z,23.26
2017-09-08T01:21:07.839Z,23.26
2017-09-08T01:22:07.880Z,23.17
2017-09-08T01:23:07.921Z,23.14
2017-09-08T01:24:28.986Z,23.22
2017-09-08T01:25:08.002Z,23.24
2017-09-08T01:26:08.046Z,23.22
2017-09-08T01:27:08.086Z,23.17
2017-09-08T01:28:08.141Z,23.14
2017-09-08T01:29:08.168Z,23.14
2017-09-08T01:30:29.234Z,23.15
2017-09-08T01:31:08.253Z,23.27
2017-09-08T01:32:08.295Z,23.19
2017-09-08T01:33:08.336Z,23.19
2017-09-08T01:34:08.375Z,23.24
2017-09-08T01:35:08.417Z,23.17
2017-09-08T01:36:29.481Z,23.12
2017-09-08T01:37:08.501Z,23.19
2017-09-08T01:38:08.541Z,23.15
2017-09-08T01:39:08.582Z,23.17
2017-09-08T01:40:08.624Z,23.19
2017-09-08T01:41:08.664Z,23.15
2017-09-08T01:42:29.730Z,23.23
2017-09-08T01:43:08.758Z,23.17
2017-09-08T01:44:08.797Z,23.15
2017-09-08T01:45:08.830Z,23.15
2017-09-08T01:46:08.871Z,23.19
2017-09-08T01:47:08.914Z,23.14
2017-09-08T01:48:29.980Z,23.22
2017-09-08T01:49:08.996Z,23.24
2017-09-08T01:50:09.038Z,23.20
2017-09-08T01:51:09.081Z,23.17
2017-09-08T01:52:09.123Z,23.15
2017-09-08T01:53:09.162Z,23.20
2017-09-08T01:54:30.231Z,23.19
2017-09-08T01:55:09.245Z,23.19
2017-09-08T01:56:09.286Z,23.15
2017-09-08T01:57:09.327Z,23.17
2017-09-08T01:58:09.371Z,23.17
2017-09-08T01:59:09.410Z,23.23
2017-09-08T02:00:30.476Z,23.15
2017-09-08T02:01:09.493Z,23.20
2017-09-08T02:02:09.534Z,23.22
2017-09-08T02:03:09.580Z,23.20
2017-09-08T02:04:09.618Z,23.15
2017-09-08T02:05:09.658Z,23.12
2017-09-08T02:06:30.722Z,23.19
2017-09-08T02:07:09.744Z,23.11
2017-09-08T02:08:09.787Z,23.17
2017-09-08T02:09:09.825Z,23.17
2017-09-08T02:10:09.866Z,23.20
2017-09-08T02:11:09.910Z,23.19
2017-09-08T02:12:30.985Z,23.15
2017-09-08T02:13:09.989Z,23.19
2017-09-08T02:14:10.031Z,23.22
2017-09-08T02:15:10.074Z,23.26
2017-09-08T02:16:10.114Z,23.24
2017-09-08T02:17:10.158Z,23.17
2017-09-08T02:18:31.219Z,23.19
2017-09-08T02:19:10.238Z,23.15
2017-09-08T02:20:10.282Z,23.15
2017-09-08T02:21:10.320Z,23.11
2017-09-08T02:22:10.362Z,23.15
2017-09-08T02:23:10.406Z,23.14
2017-09-08T02:24:31.468Z,23.15
2017-09-08T02:25:10.487Z,23.15
2017-09-08T02:26:10.529Z,23.14
2017-09-08T02:27:10.570Z,23.11
2017-09-08T02:28:10.612Z,23.15
2017-09-08T02:29:10.653Z,23.14
2017-09-08T02:30:31.715Z,23.15
2017-09-08T02:31:10.737Z,23.14
2017-09-08T02:32:10.778Z,23.14
2017-09-08T02:33:10.818Z,23.20
2017-09-08T02:34:10.860Z,23.20
2017-09-08T02:35:10.901Z,23.14
2017-09-08T02:36:31.965Z,23.14
2017-09-08T02:37:10.983Z,23.12
2017-09-08T02:38:11.025Z,23.17
2017-09-08T02:39:11.067Z,23.17
2017-09-08T02:40:11.107Z,23.17
2017-09-08T02:41:11.148Z,23.17
2017-09-08T02:42:32.213Z,23.11
2017-09-08T02:43:11.232Z,23.17
2017-09-08T02:44:11.272Z,23.20
2017-09-08T02:45:11.316Z,23.14
2017-09-08T02:46:11.355Z,23.15
2017-09-08T02:47:11.395Z,23.12
2017-09-08T02:48:32.461Z,23.15
2017-09-08T02:49:11.480Z,23.15
2017-09-08T02:50:11.520Z,23.12
2017-09-08T02:51:11.562Z,23.14
2017-09-08T02:52:11.607Z,23.14
2017-09-08T02:53:11.653Z,23.14
2017-09-08T02:54:32.707Z,23.17
2017-09-08T02:55:11.727Z,23.12
2017-09-08T02:56:11.769Z,23.14
2017-09-08T02:57:11.809Z,23.19
2017-09-08T02:58:11.853Z,23.17
2017-09-08T02:59:11.893Z,23.17
2017-09-08T03:00:32.957Z,23.15
2017-09-08T03:01:11.974Z,23.11
2017-09-08T03:02:12.018Z,23.07
2017-09-08T03:03:12.057Z,23.14
2017-09-08T03:04:12.102Z,23.12
2017-09-08T03:05:12.138Z,23.09
2017-09-08T03:06:33.204Z,23.14
2017-09-08T03:07:12.227Z,23.09
2017-09-08T03:08:12.264Z,23.15
2017-09-08T03:09:12.307Z,23.11
2017-09-08T03:10:12.347Z,23.09
2017-09-08T03:11:12.386Z,23.11
2017-09-08T03:12:33.454Z,23.09
2017-09-08T03:13:12.470Z,23.14
2017-09-08T03:14:12.511Z,23.14
2017-09-08T03:15:12.554Z,23.09
2017-09-08T03:16:12.594Z,23.09
2017-09-08T03:17:12.636Z,23.14
2017-09-08T03:18:33.699Z,23.14
2017-09-08T03:19:12.719Z,23.11
2017-09-08T03:20:12.761Z,23.14
2017-09-08T03:21:12.802Z,23.11
2017-09-08T03:22:12.842Z,23.09
2017-09-08T03:23:12.884Z,23.08
2017-09-08T03:24:33.947Z,23.05
2017-09-08T03:25:12.966Z,23.12
2017-09-08T03:26:13.008Z,23.11
2017-09-08T03:27:13.051Z,23.09
2017-09-08T03:28:13.093Z,23.08
2017-09-08T03:29:13.132Z,23.09
2017-09-08T03:30:34.198Z,23.08
2017-09-08T03:31:13.226Z,23.08
2017-09-08T03:32:13.257Z,23.09
2017-09-08T03:33:13.296Z,23.08
2017-09-08T03:34:13.338Z,23.09
2017-09-08T03:35:13.380Z,23.08
2017-09-08T03:36:34.444Z,23.11
2017-09-08T03:37:13.461Z,23.11
2017-09-08T03:38:13.506Z,23.08
2017-09-08T03:39:13.546Z,23.01
2017-09-08T03:40:13.586Z,23.07
2017-09-08T03:41:13.629Z,23.08
2017-09-08T03:42:34.692Z,23.12
2017-09-08T03:43:13.715Z,23.02
2017-09-08T03:44:13.751Z,23.07
2017-09-08T03:45:13.792Z,23.05
2017-09-08T03:46:13.837Z,23.02
2017-09-08T03:47:13.876Z,23.07
2017-09-08T03:48:35.048Z,23.08
2017-09-08T03:49:13.957Z,23.08
2017-09-08T03:50:13.997Z,23.07
2017-09-08T03:51:14.039Z,23.08
2017-09-08T03:52:14.084Z,23.05
2017-09-08T03:53:14.121Z,23.05
2017-09-08T03:54:35.187Z,23.05
2017-09-08T03:55:14.204Z,23.04
2017-09-08T03:56:14.250Z,23.07
2017-09-08T03:57:14.288Z,23.09
2017-09-08T03:58:14.328Z,23.07
2017-09-08T03:59:14.373Z,23.07
2017-09-08T04:00:35.433Z,23.08
2017-09-08T04:01:14.452Z,23.04
2017-09-08T04:02:14.498Z,23.08
2017-09-08T04:03:14.536Z,22.97
2017-09-08T04:04:14.577Z,23.07
2017-09-08T04:05:14.619Z,23.02
2017-09-08T04:06:35.680Z,23.11
2017-09-08T04:07:14.700Z,23.07
2017-09-08T04:08:14.742Z,23.04
2017-09-08T04:09:14.782Z,22.99
2017-09-08T04:10:14.823Z,23.02
2017-09-08T04:11:14.866Z,23.04
2017-09-08T04:12:35.929Z,22.97
2017-09-08T04:13:14.949Z,23.04
2017-09-08T04:14:14.992Z,23.02
2017-09-08T04:15:15.031Z,23.08
2017-09-08T04:16:15.073Z,23.01
2017-09-08T04:17:15.113Z,22.99
2017-09-08T04:18:36.181Z,22.99
2017-09-08T04:19:15.194Z,22.99
2017-09-08T04:20:15.239Z,23.01
2017-09-08T04:21:15.279Z,22.96
2017-09-08T04:22:15.320Z,23.07
2017-09-08T04:23:15.359Z,23.02
2017-09-08T04:24:36.425Z,23.08
2017-09-08T04:25:15.442Z,23.07
2017-09-08T04:26:15.484Z,23.01
2017-09-08T04:27:15.525Z,23.01
2017-09-08T04:28:15.568Z,22.99
2017-09-08T04:29:15.610Z,22.99
2017-09-08T04:30:36.671Z,22.99
2017-09-08T04:31:15.690Z,22.97
2017-09-08T04:32:15.733Z,22.99
2017-09-08T04:33:15.776Z,22.97
2017-09-08T04:34:15.813Z,23.09
2017-09-08T04:35:15.856Z,23.11
2017-09-08T04:36:36.920Z,22.96
2017-09-08T04:37:15.938Z,23.09
2017-09-08T04:38:16.088Z,23.11
2017-09-08T04:39:16.077Z,23.11
2017-09-08T04:40:16.062Z,23.09
2017-09-08T04:41:16.106Z,23.12
2017-09-08T04:42:37.166Z,23.11
2017-09-08T04:43:16.266Z,23.19
2017-09-08T04:44:16.229Z,23.14
2017-09-08T04:45:16.269Z,23.17
2017-09-08T04:46:16.310Z,23.14
2017-09-08T04:47:16.353Z,23.19
2017-09-08T04:48:37.418Z,23.24
2017-09-08T04:49:16.434Z,23.17
2017-09-08T04:50:16.482Z,23.17
2017-09-08T04:51:16.520Z,23.19
2017-09-08T04:52:18.625Z,23.12
2017-09-08T04:53:16.609Z,23.24
2017-09-08T04:54:37.663Z,23.17
2017-09-08T04:55:16.683Z,23.19
2017-09-08T04:56:16.731Z,23.17
2017-09-08T04:57:16.764Z,23.17
2017-09-08T04:58:16.806Z,23.17
2017-09-08T04:59:16.846Z,23.22
2017-09-08T05:00:37.914Z,23.24
2017-09-08T05:01:16.930Z,23.15
2017-09-08T05:02:16.973Z,23.15
2017-09-08T05:03:17.019Z,23.14
2017-09-08T05:04:17.057Z,23.19
2017-09-08T05:05:17.097Z,23.12
2017-09-08T05:06:38.164Z,23.19
2017-09-08T05:07:17.179Z,23.15
2017-09-08T05:08:17.221Z,23.14
2017-09-08T05:09:17.273Z,23.14
2017-09-08T05:10:17.304Z,23.07
2017-09-08T05:11:18.088Z,23.17
2017-09-08T05:12:38.414Z,23.14
2017-09-08T05:13:17.428Z,23.15
2017-09-08T05:14:17.468Z,23.14
2017-09-08T05:15:17.513Z,23.15
2017-09-08T05:16:17.552Z,23.12
2017-09-08T05:17:17.591Z,23.15
2017-09-08T05:18:38.656Z,23.11
2017-09-08T05:19:17.673Z,23.23
2017-09-08T05:20:17.716Z,23.14
2017-09-08T05:21:17.763Z,23.20
2017-09-08T05:22:17.817Z,23.23
2017-09-08T05:23:17.841Z,23.17
2017-09-08T05:24:38.906Z,23.12
2017-09-08T05:25:17.923Z,23.17
2017-09-08T05:26:17.969Z,23.11
2017-09-08T05:27:18.012Z,23.15
2017-09-08T05:28:18.050Z,23.14
2017-09-08T05:29:18.090Z,23.14
2017-09-08T05:30:39.153Z,23.20
2017-09-08T05:31:18.174Z,23.11
2017-09-08T05:32:18.213Z,23.11
2017-09-08T05:33:18.264Z,23.15
2017-09-08T05:34:18.294Z,23.17
2017-09-08T05:35:18.337Z,23.12
2017-09-08T05:36:39.401Z,23.17
2017-09-08T05:37:18.420Z,23.12
2017-09-08T05:38:18.461Z,23.19
2017-09-08T05:39:18.501Z,23.17
2017-09-08T05:40:18.548Z,23.17
2017-09-08T05:41:18.582Z,23.14
2017-09-08T05:42:39.734Z,23.17
2017-09-08T05:43:18.674Z,23.11
2017-09-08T05:44:18.787Z,23.15
2017-09-08T05:45:18.754Z,23.17
2017-09-08T05:46:18.789Z,23.12
2017-09-08T05:47:18.834Z,23.14
2017-09-08T05:48:39.898Z,23.14
2017-09-08T05:49:18.912Z,23.12
2017-09-08T05:50:18.957Z,23.14
2017-09-08T05:51:19.003Z,23.12
2017-09-08T05:52:19.036Z,23.19
2017-09-08T05:53:19.078Z,23.11
2017-09-08T05:54:40.141Z,23.11
2017-09-08T05:55:19.160Z,23.15
2017-09-08T05:56:19.204Z,23.08
2017-09-08T05:57:19.246Z,23.14
2017-09-08T05:58:19.285Z,23.15
2017-09-08T05:59:19.329Z,23.11
2017-09-08T06:00:40.394Z,23.14
2017-09-08T06:01:19.411Z,23.11
2017-09-08T06:02:19.454Z,23.12
2017-09-08T06:03:19.492Z,23.14
2017-09-08T06:04:19.534Z,23.12
2017-09-08T06:05:19.684Z,22.68
2017-09-08T06:06:40.638Z,22.38
2017-09-08T06:07:19.657Z,22.10
2017-09-08T06:08:19.702Z,21.94
2017-09-08T06:09:19.740Z,21.78
2017-09-08T06:10:19.787Z,21.72
2017-09-08T06:11:19.818Z,21.74
2017-09-08T06:12:40.893Z,21.74
2017-09-08T06:13:19.899Z,21.54
2017-09-08T06:14:19.941Z,21.30
2017-09-08T06:15:19.979Z,20.90
2017-09-08T06:16:20.021Z,20.93
2017-09-08T06:17:20.060Z,20.86
2017-09-08T06:18:41.124Z,20.62
2017-09-08T06:19:20.139Z,20.68
2017-09-08T06:20:20.227Z,20.54
2017-09-08T06:21:20.241Z,20.47
2017-09-08T06:22:20.260Z,20.28
2017-09-08T06:23:20.301Z,20.43
2017-09-08T06:24:41.363Z,20.28
2017-09-08T06:25:20.378Z,20.25
2017-09-08T06:26:20.421Z,19.95
2017-09-08T06:27:20.458Z,19.90
2017-09-08T06:28:20.499Z,19.97
2017-09-08T06:29:20.533Z,20.24
2017-09-08T06:30:41.602Z,20.35
2017-09-08T06:31:20.614Z,20.62
2017-09-08T06:32:20.699Z,20.83
2017-09-08T06:33:20.691Z,20.91
2017-09-08T06:34:20.738Z,21.05
2017-09-08T06:35:20.774Z,21.11
2017-09-08T06:36:41.831Z,21.09
2017-09-08T06:37:20.850Z,21.27
2017-09-08T06:38:20.912Z,21.35
2017-09-08T06:39:20.929Z,21.44
2017-09-08T06:40:20.971Z,21.50
2017-09-08T06:41:21.011Z,21.56
2017-09-08T06:42:42.068Z,21.57
2017-09-08T06:43:21.086Z,21.67
2017-09-08T06:44:21.127Z,21.72
2017-09-08T06:45:21.176Z,21.71
2017-09-08T06:46:21.214Z,21.78
2017-09-08T06:47:21.249Z,21.90
2017-09-08T06:48:42.319Z,21.90
2017-09-08T06:49:21.335Z,22.01
2017-09-08T06:50:21.372Z,21.99
2017-09-08T06:51:21.415Z,22.12
2017-09-08T06:52:21.495Z,22.13
2017-09-08T06:53:21.491Z,22.16
2017-09-08T06:54:42.555Z,22.19
2017-09-08T06:55:21.579Z,22.28
2017-09-08T06:56:21.630Z,22.32
2017-09-08T06:57:21.658Z,22.31
2017-09-08T06:58:21.707Z,22.29
2017-09-08T06:59:21.816Z,22.47
2017-09-08T07:00:42.920Z,22.43
2017-09-08T09:09:17.646Z,21.61
2017-09-08T09:10:16.325Z,21.78
2017-09-08T09:12:09.251Z,22.12
2017-09-08T09:13:09.311Z,22.27
2017-09-08T09:15:02.309Z,22.65
2017-09-08T09:16:02.316Z,22.80
2017-09-08T09:17:55.289Z,22.96
2017-09-08T09:18:55.312Z,23.09
2017-09-08T09:20:48.391Z,23.20
2017-09-08T09:21:48.345Z,23.34
2017-09-08T09:22:48.380Z,23.47
2017-09-08T09:23:48.444Z,23.58
2017-09-08T09:24:48.485Z,23.58
2017-09-08T09:25:48.483Z,23.67
2017-09-08T09:26:48.525Z,23.70
2017-09-08T09:27:48.573Z,23.77
2017-09-08T09:28:48.609Z,23.85
2017-09-08T09:29:48.649Z,23.89
2017-09-08T09:30:48.692Z,24.00
2017-09-08T09:31:48.736Z,23.98
2017-09-08T09:32:48.775Z,24.01
2017-09-08T09:33:48.954Z,24.02
2017-09-08T09:34:48.863Z,24.14
2017-09-08T09:35:49.008Z,24.05
2017-09-08T09:36:48.996Z,24.10
2017-09-08T09:37:49.113Z,24.20
2017-09-08T09:38:49.091Z,24.16
2017-09-08T09:39:49.124Z,24.26
2017-09-08T09:40:49.151Z,24.22
2017-09-08T09:41:49.264Z,24.26
2017-09-08T09:42:49.335Z,24.24
2017-09-08T09:43:49.309Z,24.27
2017-09-08T09:44:49.309Z,24.22
2017-09-08T09:45:49.372Z,24.34
2017-09-08T09:46:49.436Z,24.34
2017-09-08T09:47:49.489Z,24.29
2017-09-08T09:48:49.542Z,24.32
2017-09-08T09:49:49.547Z,24.39
2017-09-08T09:50:49.591Z,24.32
2017-09-08T09:51:49.619Z,24.37
2017-09-08T09:52:49.629Z,24.39
2017-09-08T09:53:49.686Z,24.27
2017-09-08T09:54:49.714Z,24.44
2017-09-08T09:55:49.767Z,24.38
2017-09-08T09:56:49.848Z,24.44
2017-09-08T09:57:49.880Z,24.38
2017-09-08T09:58:49.928Z,24.42
2017-09-08T09:59:49.956Z,24.42
2017-09-08T10:00:50.071Z,24.45
2017-09-08T10:01:50.040Z,24.45
2017-09-08T10:02:50.108Z,24.39
2017-09-08T10:03:50.186Z,24.41
2017-09-08T10:04:50.188Z,24.39
2017-09-08T10:05:50.213Z,24.47
2017-09-08T10:06:50.261Z,24.42
2017-09-08T10:07:50.312Z,24.39
2017-09-08T10:08:50.352Z,24.44
2017-09-08T10:09:50.405Z,24.47
2017-09-08T10:10:50.447Z,24.42
2017-09-08T10:11:50.620Z,24.49
2017-09-08T10:12:50.523Z,24.47
2017-09-08T10:13:50.546Z,24.45
2017-09-08T10:14:50.628Z,24.42
2017-09-08T10:15:50.655Z,24.45
2017-09-08T10:16:50.686Z,24.45
2017-09-08T10:17:50.733Z,24.52
2017-09-08T10:18:50.781Z,24.53
2017-09-08T10:19:50.827Z,24.52
2017-09-08T10:20:50.881Z,24.54
2017-09-08T10:21:50.959Z,24.49
2017-09-08T10:22:50.951Z,24.50
2017-09-08T10:23:50.989Z,24.52
2017-09-08T10:24:51.052Z,24.50
2017-09-08T10:25:51.085Z,24.42
2017-09-08T10:26:51.178Z,24.49
2017-09-08T10:27:51.168Z,24.56
2017-09-08T10:28:51.215Z,24.52
2017-09-08T10:29:51.257Z,24.53
2017-09-08T10:30:51.305Z,24.41
2017-09-08T10:31:51.364Z,24.45
2017-09-08T10:32:51.389Z,24.54
2017-09-08T10:33:51.418Z,24.49
2017-09-08T10:34:51.475Z,24.45
2017-09-08T10:35:51.524Z,24.37
2017-09-08T10:36:51.562Z,24.29
2017-09-08T10:37:51.590Z,24.27
2017-09-08T10:38:51.673Z,24.29
2017-09-08T10:39:51.668Z,24.31
2017-09-08T10:40:51.745Z,24.20
2017-09-08T10:41:51.759Z,24.24
2017-09-08T10:42:51.812Z,24.31
2017-09-08T10:43:51.886Z,24.22
2017-09-08T10:44:51.893Z,24.24
2017-09-08T10:45:51.925Z,24.22
2017-09-08T10:46:51.992Z,24.16
2017-09-08T10:47:52.005Z,24.05
2017-09-08T10:48:52.069Z,24.01
2017-09-08T10:49:52.087Z,24.07
2017-09-08T10:50:52.221Z,23.95
2017-09-08T10:51:52.193Z,24.08
2017-09-08T10:52:52.228Z,24.01
2017-09-08T10:53:52.258Z,24.00
2017-09-08T10:54:52.321Z,23.95
2017-09-08T10:55:52.360Z,24.00
2017-09-08T10:56:52.389Z,24.02
2017-09-08T10:57:52.429Z,24.00
2017-09-08T10:58:52.534Z,23.82
2017-09-08T10:59:52.516Z,23.87
2017-09-08T11:00:52.560Z,23.86
2017-09-08T11:01:52.610Z,23.76
2017-09-08T11:02:52.642Z,23.70
2017-09-08T11:03:52.686Z,23.71
2017-09-08T11:04:52.732Z,23.70
2017-09-08T11:05:52.749Z,23.65
2017-09-08T11:06:52.833Z,23.70
2017-09-08T11:07:52.869Z,23.65
2017-09-08T11:08:52.883Z,23.64
2017-09-08T11:09:52.944Z,23.58
2017-09-08T11:10:53.014Z,23.65
2017-09-08T11:11:53.033Z,23.53
2017-09-08T11:12:53.061Z,23.64
2017-09-08T11:13:53.089Z,23.64
2017-09-08T11:14:53.158Z,23.62
2017-09-08T11:15:53.194Z,23.57
2017-09-08T11:16:53.240Z,23.55
2017-09-08T11:17:53.274Z,23.53
2017-09-08T11:18:53.313Z,23.53
2017-09-08T11:19:53.357Z,23.55
2017-09-08T11:20:53.400Z,23.61
2017-09-08T11:21:53.440Z,23.65
2017-09-08T11:22:53.495Z,23.62
2017-09-08T11:23:53.488Z,23.71
2017-09-08T11:24:53.586Z,23.72
2017-09-08T11:25:53.573Z,23.75
2017-09-08T11:26:53.617Z,23.80
2017-09-08T11:27:53.669Z,23.83
2017-09-08T11:28:53.698Z,23.79
2017-09-08T11:29:53.741Z,23.85
2017-09-08T11:30:53.782Z,23.89
2017-09-08T11:31:53.829Z,23.85
2017-09-08T11:32:53.866Z,23.82
2017-09-08T11:33:53.907Z,23.82
2017-09-08T11:34:53.952Z,23.85
2017-09-08T11:35:53.995Z,23.79
2017-09-08T11:36:54.033Z,23.87
2017-09-08T11:37:54.080Z,23.83
2017-09-08T11:38:54.121Z,23.79
2017-09-08T11:39:54.162Z,23.79
2017-09-08T11:40:54.201Z,23.82
2017-09-08T11:41:54.242Z,23.83
2017-09-08T11:42:54.286Z,23.82
2017-09-08T11:43:54.328Z,23.83
2017-09-08T11:44:54.375Z,23.80
2017-09-08T11:45:54.410Z,23.72
2017-09-08T11:46:54.454Z,23.77
2017-09-08T11:47:54.497Z,23.77
2017-09-08T11:48:54.538Z,23.68
2017-09-08T11:49:54.623Z,23.62
2017-09-08T11:50:54.621Z,23.64
2017-09-08T11:51:54.667Z,23.60
2017-09-08T11:52:55.750Z,23.61
2017-09-08T11:53:55.249Z,23.57
2017-09-08T11:54:54.795Z,23.60
2017-09-08T11:55:54.833Z,23.57
2017-09-08T11:56:54.870Z,23.58
2017-09-08T11:57:54.916Z,23.55
2017-09-08T11:58:54.957Z,23.53
2017-09-08T11:59:54.998Z,23.43
2017-09-08T12:00:55.039Z,23.46
2017-09-08T12:01:55.913Z,23.42
2017-09-08T12:02:55.127Z,23.52
2017-09-08T12:03:55.260Z,23.38
2017-09-08T12:04:55.302Z,23.47
2017-09-08T12:05:55.255Z,23.49
2017-09-08T12:06:55.290Z,23.38
2017-09-08T12:07:55.332Z,23.29
2017-09-08T12:08:55.376Z,23.45
2017-09-08T12:09:55.414Z,23.45
2017-09-08T12:10:55.456Z,23.46
2017-09-08T12:11:55.500Z,23.29
2017-09-08T12:12:55.540Z,23.38
2017-09-08T12:13:55.588Z,23.34
2017-09-08T12:14:55.625Z,23.34
2017-09-08T12:15:55.665Z,23.27
2017-09-08T12:16:55.810Z,23.38
2017-09-08T12:17:55.796Z,23.39
2017-09-08T12:18:55.824Z,23.31
2017-09-08T12:19:55.833Z,23.34
2017-09-08T12:20:55.874Z,23.32
2017-09-08T12:21:55.915Z,23.24
2017-09-08T12:22:55.959Z,23.17
2017-09-08T12:23:56.005Z,23.29
2017-09-08T12:24:56.048Z,23.19
2017-09-08T12:25:56.084Z,23.26
2017-09-08T12:26:56.126Z,23.15
2017-09-08T12:27:56.170Z,23.22
2017-09-08T12:28:56.207Z,23.19
2017-09-08T12:29:56.248Z,23.15
2017-09-08T12:30:56.293Z,23.20
2017-09-08T12:31:56.334Z,23.31
2017-09-08T12:32:56.374Z,23.26
2017-09-08T12:33:56.418Z,23.31
2017-09-08T12:34:56.460Z,23.29
2017-09-08T12:35:56.500Z,23.39
2017-09-08T12:36:56.541Z,23.34
2017-09-08T12:37:56.582Z,23.29
2017-09-08T12:38:56.625Z,23.26
2017-09-08T12:39:56.668Z,23.24
2017-09-08T12:40:56.710Z,23.35
2017-09-08T12:41:56.889Z,23.34
2017-09-08T12:42:56.797Z,23.38
2017-09-08T12:43:56.836Z,23.52
2017-09-08T12:44:56.878Z,23.40
2017-09-08T12:45:56.917Z,23.34
2017-09-08T12:46:56.961Z,23.31
2017-09-08T12:47:57.005Z,23.45
2017-09-08T12:48:57.044Z,23.43
2017-09-08T12:49:57.090Z,23.47
2017-09-08T12:50:57.131Z,23.47
2017-09-08T12:51:57.166Z,23.46
2017-09-08T12:52:57.207Z,23.50
2017-09-08T12:53:57.250Z,23.47
2017-09-08T12:54:57.292Z,23.42
2017-09-08T12:55:57.334Z,23.47
2017-09-08T12:56:57.375Z,23.55
2017-09-08T12:57:57.416Z,23.61
2017-09-08T12:58:57.465Z,23.55
2017-09-08T12:59:57.502Z,23.53
2017-09-08T13:00:57.544Z,23.53
2017-09-08T13:01:57.586Z,23.58
2017-09-08T13:02:57.629Z,23.58
2017-09-08T13:03:57.677Z,23.57
2017-09-08T13:04:57.719Z,23.53
2017-09-08T13:05:57.755Z,23.55
2017-09-08T13:06:57.877Z,23.58
2017-09-08T13:07:57.843Z,23.57
2017-09-08T13:08:57.876Z,23.57
2017-09-08T13:09:57.939Z,23.53
2017-09-08T13:10:58.009Z,23.53
2017-09-08T13:11:58.009Z,23.45
2017-09-08T13:12:58.050Z,23.40
2017-09-08T13:13:58.089Z,23.46
2017-09-08T13:14:58.129Z,23.46
2017-09-08T13:15:58.172Z,23.42
2017-09-08T13:16:58.210Z,23.55
2017-09-08T13:17:58.252Z,23.47
2017-09-08T13:18:58.297Z,23.55
2017-09-08T13:19:58.336Z,23.39
2017-09-08T13:20:58.382Z,23.40
2017-09-08T13:21:58.419Z,23.50
2017-09-08T13:22:58.479Z,23.45
2017-09-08T13:23:58.502Z,23.52
2017-09-08T13:24:58.544Z,23.42
2017-09-08T13:25:58.594Z,23.34
2017-09-08T13:26:58.631Z,23.32
2017-09-08T13:27:58.693Z,23.26
2017-09-08T13:28:58.722Z,23.26
2017-09-08T13:29:58.757Z,23.29
2017-09-08T13:30:58.801Z,23.29
2017-09-08T13:31:58.837Z,23.31
2017-09-08T13:32:58.880Z,23.34
2017-09-08T13:33:58.921Z,23.32
2017-09-08T13:34:58.969Z,23.39
2017-09-08T13:35:59.035Z,23.34
2017-09-08T13:36:59.048Z,23.32
2017-09-08T13:37:59.089Z,23.32
2017-09-08T13:38:59.131Z,23.39
2017-09-08T13:39:59.172Z,23.32
2017-09-08T13:40:59.216Z,23.40
2017-09-08T13:41:59.261Z,23.46
2017-09-08T13:42:59.295Z,23.45
2017-09-08T13:43:59.340Z,23.42
2017-09-08T13:44:59.381Z,23.45
2017-09-08T13:45:59.421Z,23.43
2017-09-08T13:46:59.464Z,23.43
2017-09-08T13:47:59.504Z,23.38
2017-09-08T13:48:59.545Z,23.50
2017-09-08T13:49:59.588Z,23.39
2017-09-08T13:50:59.636Z,23.43
2017-09-08T13:51:59.675Z,23.50
2017-09-08T13:52:59.743Z,23.50
2017-09-08T13:53:59.752Z,23.43
2017-09-08T13:54:59.796Z,23.47
2017-09-08T13:55:59.837Z,23.45
2017-09-08T13:56:59.879Z,23.43
2017-09-08T13:57:59.922Z,23.46
2017-09-08T13:58:59.962Z,23.38
2017-09-08T14:00:00.004Z,23.49
2017-09-08T14:01:00.049Z,23.40
2017-09-08T14:02:00.088Z,23.46
2017-09-08T14:03:00.130Z,23.47
2017-09-08T14:04:00.172Z,23.49
2017-09-08T14:05:00.212Z,23.45
2017-09-08T14:06:00.254Z,23.46
2017-09-08T14:07:00.297Z,23.43
2017-09-08T14:08:00.338Z,23.45
2017-09-08T14:09:00.379Z,23.40
2017-09-08T14:10:00.420Z,23.50
2017-09-08T14:11:00.462Z,23.43
2017-09-08T14:12:00.507Z,23.35
2017-09-08T14:13:00.548Z,23.38
2017-09-08T14:14:00.588Z,23.32
2017-09-08T14:15:00.627Z,23.29
2017-09-08T14:16:00.669Z,23.35
2017-09-08T14:17:00.709Z,23.31
2017-09-08T14:18:00.751Z,23.38
2017-09-08T14:19:00.793Z,23.24
2017-09-08T14:20:00.837Z,23.27
2017-09-08T14:21:00.875Z,23.24
2017-09-08T14:22:00.917Z,23.24
2017-09-08T14:23:00.958Z,23.27
2017-09-08T14:24:01.002Z,23.22
2017-09-08T14:25:01.040Z,23.20
2017-09-08T14:26:01.082Z,23.11
2017-09-08T14:27:01.124Z,23.20
2017-09-08T14:28:01.165Z,23.15
2017-09-08T14:29:01.206Z,23.20
2017-09-08T14:30:01.247Z,23.17
2017-09-08T14:31:01.290Z,23.15
2017-09-08T14:32:01.361Z,23.24
2017-09-08T14:33:01.371Z,23.17
2017-09-08T14:34:01.416Z,23.23
2017-09-08T14:35:01.454Z,23.22
2017-09-08T14:36:01.499Z,23.24
2017-09-08T14:37:01.537Z,23.15
2017-09-08T14:38:01.578Z,23.14
2017-09-08T14:39:01.622Z,23.17
2017-09-08T14:40:01.663Z,23.19
2017-09-08T14:41:01.703Z,23.22
2017-09-08T14:42:01.744Z,23.15
2017-09-08T14:43:01.786Z,23.29
2017-09-08T14:44:01.826Z,23.14
2017-09-08T14:45:01.870Z,23.23
2017-09-08T14:46:01.908Z,23.27
2017-09-08T14:47:01.953Z,23.34
2017-09-08T14:48:01.996Z,23.22
2017-09-08T14:49:02.031Z,23.32
2017-09-08T14:50:02.076Z,23.34
2017-09-08T14:51:02.125Z,23.35
2017-09-08T14:52:02.159Z,23.38
2017-09-08T14:53:02.199Z,23.38
2017-09-08T14:54:02.240Z,23.31
2017-09-08T14:55:02.281Z,23.39
2017-09-08T14:56:02.329Z,23.40
2017-09-08T14:57:02.367Z,23.42
2017-09-08T14:58:02.417Z,23.42
2017-09-08T14:59:02.450Z,23.49
2017-09-08T15:00:02.493Z,23.50
2017-09-08T15:01:02.531Z,23.42
2017-09-08T15:02:02.572Z,23.46
2017-09-08T15:03:02.617Z,23.43
2017-09-08T15:04:02.660Z,23.42